Time;durP1;ratioP1;P1;durP2;ratioP2;P2;SDS_P1;SDS_P2;PMS_P1;PMS_P2;Temp;Humidity;BMP_temperature;BMP_pressure;BME280_temperature;BME280_humidity;BME280_pressure;Samples;Min_cycle;Max_cycle;Signal;HPM_P1;HPM_P2
2021/12/19 00:00:29;;;;;;;3.30;3.10;;;21.70;44.20;;;;;;5011761;28;20188;-70
2021/12/19 00:03:30;;;;;;;3.40;3.10;;;21.80;44.30;;;;;;5028117;28;20184;-70
2021/12/19 00:08:50;;;;;;;3.90;3.60;;;21.80;44.20;;;;;;5011002;28;20191;-70
2021/12/19 00:11:22;;;;;;;3.65;3.35;;;21.80;44.20;;;;;;5011636;28;20659;-70
2021/12/19 00:13:49;;;;;;;3.55;3.25;;;21.80;44.30;;;;;;5011038;28;20208;-70
2021/12/19 00:16:16;;;;;;;3.00;2.80;;;21.80;44.30;;;;;;5012408;28;20616;-71
2021/12/19 00:18:43;;;;;;;3.90;3.60;;;21.80;44.30;;;;;;5010928;28;20188;-70
2021/12/19 00:21:15;;;;;;;3.63;3.33;;;21.80;44.30;;;;;;4994324;28;20210;-70
2021/12/19 00:23:42;;;;;;;3.50;3.20;;;21.70;44.20;;;;;;5011146;28;20231;-70
2021/12/19 00:26:08;;;;;;;3.50;3.30;;;21.80;44.30;;;;;;5011021;28;20196;-70
2021/12/19 00:28:35;;;;;;;3.95;3.65;;;21.70;44.20;;;;;;5010915;28;20271;-70
2021/12/19 00:31:02;;;;;;;3.80;3.50;;;21.80;44.30;;;;;;5011172;28;20233;-70
2021/12/19 00:33:28;;;;;;;3.50;3.20;;;21.70;44.20;;;;;;5012082;28;20184;-70
2021/12/19 00:35:54;;;;;;;3.90;3.60;;;21.70;44.20;;;;;;5027315;28;20191;-70
2021/12/19 00:38:19;;;;;;;3.80;3.50;;;21.70;44.20;;;;;;4994267;28;20198;-70
2021/12/19 00:40:45;;;;;;;3.90;3.60;;;21.70;44.20;;;;;;5010949;28;20188;-70
2021/12/19 00:43:22;;;;;;;4.00;3.70;;;21.80;44.20;;;;;;5010980;28;20204;-70
2021/12/19 00:45:50;;;;;;;4.07;3.78;;;21.70;44.20;;;;;;5010913;28;20638;-70
2021/12/19 00:48:16;;;;;;;3.80;3.50;;;21.70;44.20;;;;;;5011753;28;20168;-70
2021/12/19 00:50:43;;;;;;;3.55;3.25;;;21.80;44.30;;;;;;5011094;28;20197;-70
2021/12/19 00:53:10;;;;;;;3.47;3.22;;;21.80;44.30;;;;;;5012028;28;20192;-70
2021/12/19 00:55:37;;;;;;;3.95;3.65;;;21.70;44.20;;;;;;5010735;28;20212;-69
2021/12/19 00:58:04;;;;;;;3.25;3.05;;;21.70;44.20;;;;;;5010590;28;20252;-70
2021/12/19 01:00:34;;;;;;;3.67;3.40;;;21.70;44.20;;;;;;5011070;28;20210;-69
2021/12/19 01:03:01;;;;;;;3.50;3.20;;;21.70;44.20;;;;;;5010589;28;20674;-70
2021/12/19 01:05:32;;;;;;;3.95;3.65;;;21.70;44.40;;;;;;5010747;28;20235;-70
2021/12/19 01:07:58;;;;;;;3.25;3.05;;;21.80;44.30;;;;;;5010483;28;20636;-70
2021/12/19 01:10:24;;;;;;;3.70;3.40;;;21.80;44.30;;;;;;5010697;28;20234;-70
2021/12/19 01:12:50;;;;;;;3.25;3.05;;;21.80;44.30;;;;;;5010789;28;20192;-70
2021/12/19 01:15:17;;;;;;;3.60;3.30;;;21.70;44.20;;;;;;5010548;28;20204;-70
2021/12/19 01:17:44;;;;;;;3.00;2.80;;;21.80;44.30;;;;;;4993976;28;20188;-70
2021/12/19 01:20:18;;;;;;;3.10;2.90;;;21.80;44.30;;;;;;5010406;28;20191;-70
2021/12/19 01:22:44;;;;;;;3.55;3.35;;;21.80;44.30;;;;;;5010782;28;20191;-70
2021/12/19 01:25:11;;;;;;;3.67;3.38;;;21.80;44.20;;;;;;5010381;28;20220;-69
2021/12/19 01:27:36;;;;;;;3.45;3.25;;;21.80;44.20;;;;;;5009985;28;20224;-70
2021/12/19 01:30:06;;;;;;;3.72;3.42;;;21.80;44.30;;;;;;5010484;28;20215;-69
2021/12/19 01:32:33;;;;;;;3.60;3.30;;;21.80;44.20;;;;;;5011693;28;20184;-70
2021/12/19 01:34:59;;;;;;;3.90;3.60;;;21.80;44.20;;;;;;5014064;28;20211;-69
2021/12/19 01:37:25;;;;;;;3.72;3.42;;;21.80;44.20;;;;;;5014083;28;20198;-70
2021/12/19 01:39:51;;;;;;;3.65;3.42;;;21.70;44.10;;;;;;5014119;28;20283;-70
2021/12/19 01:42:19;;;;;;;3.80;3.50;;;21.80;44.20;;;;;;5014068;28;20227;-68
2021/12/19 01:44:47;;;;;;;3.47;3.22;;;21.80;44.20;;;;;;5013795;28;20318;-69
2021/12/19 01:47:14;;;;;;;3.17;2.97;;;21.80;44.30;;;;;;4997402;28;20188;-70
2021/12/19 01:49:41;;;;;;;3.10;2.90;;;21.80;44.30;;;;;;5014886;28;20184;-70
2021/12/19 01:52:07;;;;;;;3.22;3.03;;;21.80;44.30;;;;;;5013892;28;20237;-70
2021/12/19 01:54:33;;;;;;;3.15;2.95;;;21.80;44.30;;;;;;4997513;28;20749;-70
2021/12/19 01:56:59;;;;;;;3.38;3.10;;;21.80;44.30;;;;;;5013729;28;20230;-70
2021/12/19 01:59:25;;;;;;;3.17;2.97;;;21.80;44.30;;;;;;5014681;28;20214;-70
2021/12/19 02:01:54;;;;;;;2.92;2.72;;;21.80;44.20;;;;;;5013865;28;20199;-70
2021/12/19 02:04:21;;;;;;;3.72;3.42;;;21.80;44.30;;;;;;5013071;28;20208;-70
2021/12/19 02:06:49;;;;;;;3.30;3.10;;;21.80;44.30;;;;;;5013662;28;20192;-70
2021/12/19 02:09:18;;;;;;;3.30;3.10;;;21.80;44.20;;;;;;5013576;28;20195;-70
2021/12/19 02:11:44;;;;;;;3.13;2.92;;;21.80;44.20;;;;;;5013738;28;20176;-70
2021/12/19 02:14:11;;;;;;;3.35;3.15;;;21.80;44.20;;;;;;5013394;28;20214;-69
2021/12/19 02:16:40;;;;;;;3.30;3.10;;;21.80;44.20;;;;;;5013428;28;20196;-69
2021/12/19 02:19:09;;;;;;;3.42;3.13;;;21.80;44.20;;;;;;5013198;28;20192;-70
2021/12/19 02:21:36;;;;;;;3.85;3.55;;;21.70;44.10;;;;;;5013424;28;20215;-69
2021/12/19 02:24:07;;;;;;;4.10;3.80;;;21.70;44.10;;;;;;5014331;28;20211;-69
2021/12/19 02:26:33;;;;;;;3.50;3.20;;;21.70;44.70;;;;;;5013330;28;20266;-70
2021/12/19 02:28:59;;;;;;;3.83;3.53;;;21.70;44.10;;;;;;5012933;28;20193;-68
2021/12/19 02:31:28;;;;;;;3.63;3.33;;;21.80;44.20;;;;;;4996871;28;20184;-70
2021/12/19 02:34:09;;;;;;;3.08;2.88;;;21.80;44.20;;;;;;5013213;28;20200;-70
2021/12/19 02:36:48;;;;;;;2.90;2.70;;;21.80;44.20;;;;;;5013183;28;20188;-70
2021/12/19 02:50:18;;;;;;;3.10;2.90;;;21.80;44.10;;;;;;5014016;28;20238;-70
2021/12/19 02:52:46;;;;;;;3.25;3.05;;;21.80;44.20;;;;;;5012754;28;20194;-70
2021/12/19 02:55:16;;;;;;;3.33;3.08;;;21.80;44.20;;;;;;5012673;28;20208;-70
2021/12/19 02:57:43;;;;;;;2.92;2.72;;;21.80;44.10;;;;;;5012561;28;20188;-70
2021/12/19 03:00:19;;;;;;;2.90;2.70;;;21.80;44.20;;;;;;5012567;28;20192;-70
2021/12/19 03:02:45;;;;;;;3.15;2.95;;;21.80;44.20;;;;;;5012789;28;20187;-70
2021/12/19 03:05:11;;;;;;;2.88;2.67;;;21.80;44.20;;;;;;5013574;28;20308;-70
2021/12/19 03:07:41;;;;;;;2.88;2.67;;;21.80;44.20;;;;;;4995610;28;20195;-70
2021/12/19 03:18:31;;;;;;;2.70;2.50;;;21.80;44.10;;;;;;5011916;28;20691;-70
2021/12/19 03:20:57;;;;;;;3.03;2.83;;;21.80;44.20;;;;;;5011985;28;20184;-70
2021/12/19 03:23:23;;;;;;;2.65;2.45;;;21.80;44.20;;;;;;5011656;28;20349;-70
2021/12/19 03:25:49;;;;;;;2.70;2.50;;;21.80;44.20;;;;;;5012054;28;20330;-69
2021/12/19 03:28:15;;;;;;;2.60;2.45;;;21.80;44.20;;;;;;5011964;28;20271;-70
2021/12/19 03:30:45;;;;;;;3.05;2.85;;;21.80;44.30;;;;;;5012030;28;20651;-70
2021/12/19 03:33:12;;;;;;;2.70;2.50;;;21.80;44.20;;;;;;5010683;28;20234;-70
2021/12/19 03:35:39;;;;;;;2.85;2.65;;;21.80;44.30;;;;;;4988482;28;20295;-69
2021/12/19 03:38:10;;;;;;;2.92;2.72;;;21.80;44.20;;;;;;5008655;28;20197;-70
2021/12/19 03:40:43;;;;;;;2.83;2.63;;;21.80;44.20;;;;;;4976465;28;20189;-69
2021/12/19 03:43:14;;;;;;;2.67;2.47;;;21.80;44.20;;;;;;5000097;28;20188;-70
2021/12/19 03:45:43;;;;;;;3.17;2.97;;;21.80;44.20;;;;;;5011533;28;20694;-70
2021/12/19 03:48:12;;;;;;;2.80;2.60;;;21.80;44.10;;;;;;5011527;28;20323;-70
2021/12/19 03:50:47;;;;;;;3.25;3.05;;;21.80;44.20;;;;;;5011809;28;20188;-70
2021/12/19 03:53:16;;;;;;;2.70;2.50;;;21.80;44.10;;;;;;5011779;28;20270;-70
2021/12/19 03:55:42;;;;;;;2.75;2.55;;;21.80;44.20;;;;;;5011993;28;20196;-70
2021/12/19 03:58:09;;;;;;;2.92;2.72;;;21.80;44.20;;;;;;4994699;28;20184;-70
2021/12/19 04:00:36;;;;;;;2.67;2.47;;;21.80;44.20;;;;;;5011501;28;20184;-70
2021/12/19 04:03:09;;;;;;;2.60;2.50;;;21.80;44.20;;;;;;5012496;28;20185;-70
2021/12/19 04:05:38;;;;;;;2.80;2.60;;;21.80;44.20;;;;;;5049184;23;20227;-70
2021/12/19 04:08:04;;;;;;;2.60;2.40;;;21.80;44.20;;;;;;5031044;28;20179;-71
2021/12/19 04:10:30;;;;;;;2.42;2.33;;;21.80;44.20;;;;;;5048304;28;20712;-70
2021/12/19 04:12:57;;;;;;;2.65;2.45;;;21.80;44.20;;;;;;5031651;28;20183;-71
2021/12/19 04:15:23;;;;;;;2.30;2.20;;;21.80;44.20;;;;;;5044796;28;20213;-70
2021/12/19 04:17:50;;;;;;;2.88;2.67;;;21.80;44.10;;;;;;5011648;28;20180;-71
2021/12/19 04:20:18;;;;;;;2.55;2.35;;;21.80;44.10;;;;;;5011840;28;20255;-71
2021/12/19 04:22:49;;;;;;;2.45;2.35;;;21.80;44.00;;;;;;5012946;28;20168;-71
2021/12/19 04:25:15;;;;;;;2.38;2.28;;;21.80;44.10;;;;;;5028035;28;20310;-71
2021/12/19 04:27:42;;;;;;;3.08;2.88;;;21.80;44.10;;;;;;5011386;28;20234;-70
2021/12/19 04:30:12;;;;;;;2.28;2.17;;;21.80;44.00;;;;;;5028323;28;20180;-70
2021/12/19 04:32:43;;;;;;;2.65;2.50;;;21.80;44.10;;;;;;4995150;28;20188;-70
2021/12/19 04:35:10;;;;;;;2.50;2.40;;;21.80;44.10;;;;;;5012679;28;20219;-70
2021/12/19 04:40:17;;;;;;;2.40;2.30;;;21.80;44.00;;;;;;5027928;28;20179;-70
2021/12/19 05:03:42;;;;;;;2.20;2.10;;;21.80;44.00;;;;;;5012372;28;20216;-70
2021/12/19 05:06:34;;;;;;;2.28;1.95;;;21.80;44.10;;;;;;4995910;28;20207;-70
2021/12/19 05:14:30;;;;;;;2.20;2.10;;;21.80;44.00;;;;;;5016176;28;20226;-71
2021/12/19 05:17:03;;;;;;;2.30;2.20;;;21.80;44.00;;;;;;5031583;28;20222;-70
2021/12/19 05:19:42;;;;;;;2.33;2.22;;;21.80;44.60;;;;;;5031413;28;20279;-71
2021/12/19 05:22:08;;;;;;;2.08;1.98;;;21.80;44.00;;;;;;5015003;28;20172;-71
2021/12/19 05:27:08;;;;;;;2.10;2.00;;;21.80;44.00;;;;;;5016031;28;20184;-71
2021/12/19 05:29:36;;;;;;;2.08;1.98;;;21.80;44.00;;;;;;4998608;28;20177;-71
2021/12/19 05:32:03;;;;;;;1.90;1.80;;;21.80;44.00;;;;;;5031260;28;20184;-71
2021/12/19 05:34:30;;;;;;;2.20;2.10;;;21.80;44.00;;;;;;4998269;28;20216;-71
2021/12/19 05:45:12;;;;;;;2.25;2.15;;;21.90;44.00;;;;;;5030898;28;20255;-70
2021/12/19 05:47:47;;;;;;;2.20;2.10;;;21.80;43.90;;;;;;5014748;28;20175;-70
2021/12/19 05:50:17;;;;;;;2.35;2.20;;;21.80;44.00;;;;;;5021499;28;20190;-71
2021/12/19 05:52:44;;;;;;;2.10;2.00;;;21.80;44.00;;;;;;5050784;28;20202;-71
2021/12/19 05:55:10;;;;;;;1.95;1.85;;;21.80;44.00;;;;;;5017893;28;20678;-70
2021/12/19 05:57:36;;;;;;;2.17;2.08;;;21.80;44.00;;;;;;5034079;28;20285;-70
2021/12/19 06:00:07;;;;;;;2.03;1.92;;;21.80;44.00;;;;;;5033931;28;20230;-70
2021/12/19 06:02:34;;;;;;;2.00;1.90;;;21.80;44.60;;;;;;5035206;28;20199;-70
2021/12/19 06:05:00;;;;;;;2.00;1.90;;;21.80;44.00;;;;;;5033951;28;20253;-70
2021/12/19 06:07:26;;;;;;;2.00;1.90;;;21.80;44.00;;;;;;5034151;28;20207;-70
2021/12/19 06:09:52;;;;;;;2.20;2.00;;;21.90;44.00;;;;;;5034193;28;20180;-70
2021/12/19 06:12:17;;;;;;;1.92;1.83;;;21.80;43.90;;;;;;5034054;28;20187;-71
2021/12/19 06:14:43;;;;;;;2.00;1.90;;;21.80;44.00;;;;;;5024321;28;20207;-70
2021/12/19 06:17:09;;;;;;;1.92;1.83;;;21.80;44.00;;;;;;5016492;28;20188;-70
2021/12/19 06:19:36;;;;;;;2.08;1.98;;;21.80;43.90;;;;;;5028319;28;20246;-70
2021/12/19 06:22:05;;;;;;;2.00;1.90;;;21.80;43.90;;;;;;5030172;28;20194;-71
2021/12/19 06:24:32;;;;;;;2.80;2.60;;;21.80;43.90;;;;;;5033682;28;20292;-70
2021/12/19 06:27:00;;;;;;;2.33;2.22;;;21.80;43.90;;;;;;5033561;28;20172;-71
2021/12/19 06:29:28;;;;;;;2.58;2.38;;;21.80;43.90;;;;;;5033427;28;20183;-70
2021/12/19 06:31:55;;;;;;;2.70;2.50;;;21.80;43.90;;;;;;5033420;28;20187;-71
2021/12/19 06:34:21;;;;;;;2.78;2.58;;;21.80;43.80;;;;;;5033240;28;20211;-70
2021/12/19 06:36:47;;;;;;;2.50;2.40;;;21.80;43.90;;;;;;5016919;28;20183;-71
2021/12/19 06:39:12;;;;;;;2.30;2.20;;;21.70;43.80;;;;;;5033068;28;20601;-71
2021/12/19 06:41:38;;;;;;;2.20;2.10;;;21.80;43.90;;;;;;5033552;28;20191;-70
2021/12/19 06:44:05;;;;;;;2.33;2.22;;;21.80;43.90;;;;;;5032988;28;20207;-70
2021/12/19 06:46:32;;;;;;;2.45;2.28;;;21.80;43.90;;;;;;5049806;28;20205;-70
2021/12/19 06:48:58;;;;;;;2.22;2.13;;;21.80;43.90;;;;;;5032931;28;20266;-70
2021/12/19 06:51:24;;;;;;;2.50;2.40;;;21.80;43.90;;;;;;5033216;28;20214;-70
2021/12/19 06:53:50;;;;;;;2.20;2.10;;;21.80;43.90;;;;;;5033324;28;20191;-69
2021/12/19 06:56:16;;;;;;;2.35;2.25;;;21.80;43.90;;;;;;5016749;28;20183;-70
2021/12/19 06:58:42;;;;;;;2.00;1.90;;;21.80;43.90;;;;;;5016119;28;20183;-70
2021/12/19 07:01:08;;;;;;;2.55;2.40;;;21.80;43.90;;;;;;5033990;28;20194;-70
2021/12/19 07:03:34;;;;;;;2.22;2.13;;;21.80;43.90;;;;;;5015448;28;20226;-70
2021/12/19 07:06:00;;;;;;;2.35;2.15;;;21.80;43.90;;;;;;5025466;28;20211;-69
2021/12/19 07:08:26;;;;;;;2.50;2.33;;;21.80;43.90;;;;;;5010037;28;20194;-71
2021/12/19 07:10:52;;;;;;;2.22;2.10;;;21.80;43.90;;;;;;5001576;28;20188;-72
2021/12/19 07:13:21;;;;;;;2.00;1.90;;;21.80;43.80;;;;;;4998123;28;20172;-73
2021/12/19 07:15:51;;;;;;;2.50;2.30;;;21.80;43.80;;;;;;5007864;28;20203;-72
2021/12/19 07:18:17;;;;;;;2.28;2.17;;;21.80;43.80;;;;;;5032381;28;20760;-72
2021/12/19 07:20:44;;;;;;;2.70;2.50;;;21.70;43.70;;;;;;5032849;28;20217;-72
2021/12/19 07:23:18;;;;;;;2.08;1.98;;;21.80;43.80;;;;;;5032305;28;20282;-72
2021/12/19 07:25:45;;;;;;;2.30;2.20;;;21.70;43.70;;;;;;5033521;28;20203;-72
2021/12/19 07:28:12;;;;;;;1.88;1.77;;;21.70;44.40;;;;;;5032145;28;20666;-72
2021/12/19 07:30:40;;;;;;;1.90;1.80;;;21.80;43.80;;;;;;5031354;28;20189;-72
2021/12/19 07:33:09;;;;;;;2.05;1.95;;;21.80;43.80;;;;;;5016109;28;20184;-72
2021/12/19 07:35:38;;;;;;;2.17;2.08;;;21.80;43.90;;;;;;5032152;28;20213;-72
2021/12/19 07:38:06;;;;;;;1.75;1.65;;;21.80;43.80;;;;;;5032186;28;20176;-72
2021/12/19 07:40:36;;;;;;;1.90;1.80;;;21.80;43.80;;;;;;5032112;28;20326;-72
2021/12/19 07:43:10;;;;;;;1.65;1.55;;;21.80;43.80;;;;;;5032133;28;20191;-72
2021/12/19 07:45:36;;;;;;;1.92;1.83;;;21.80;43.80;;;;;;5032032;28;20211;-72
2021/12/19 07:48:03;;;;;;;1.70;1.60;;;21.80;43.80;;;;;;5031804;28;20183;-71
2021/12/19 07:50:31;;;;;;;1.83;1.73;;;21.80;43.80;;;;;;5015772;28;20180;-72
2021/12/19 07:52:58;;;;;;;2.15;2.05;;;21.80;43.80;;;;;;5031983;28;20265;-72
2021/12/19 07:55:25;;;;;;;2.05;1.95;;;21.80;43.80;;;;;;5031893;28;20207;-72
2021/12/19 07:57:51;;;;;;;1.88;1.77;;;21.80;43.70;;;;;;5031676;28;20194;-72
2021/12/19 08:00:20;;;;;;;1.80;1.70;;;21.80;43.80;;;;;;5031919;28;20179;-72
2021/12/19 08:02:47;;;;;;;1.90;1.80;;;21.80;43.70;;;;;;5015541;28;20198;-72
2021/12/19 08:05:15;;;;;;;2.25;2.15;;;21.80;43.70;;;;;;5031632;28;20219;-72
2021/12/19 08:07:43;;;;;;;2.10;2.00;;;21.70;43.70;;;;;;5032628;28;20264;-72
2021/12/19 08:12:37;;;;;;;1.80;1.70;;;21.70;43.70;;;;;;5032769;28;20163;-72
2021/12/19 08:15:09;;;;;;;1.70;1.60;;;21.80;43.80;;;;;;5031521;28;20214;-72
2021/12/19 08:17:35;;;;;;;1.80;1.60;;;21.80;43.80;;;;;;5032801;28;20654;-72
2021/12/19 08:20:05;;;;;;;1.52;1.42;;;21.80;43.80;;;;;;5031674;28;20187;-72
2021/12/19 08:22:33;;;;;;;1.80;1.70;;;21.80;43.80;;;;;;5031466;28;20232;-72
2021/12/19 08:24:58;;;;;;;1.75;1.65;;;21.80;43.80;;;;;;5031250;28;20223;-72
2021/12/19 08:27:26;;;;;;;1.80;1.70;;;21.80;43.70;;;;;;5031218;28;20190;-72
2021/12/19 08:29:54;;;;;;;1.55;1.45;;;21.80;43.80;;;;;;5014845;28;20609;-72
2021/12/19 08:32:22;;;;;;;1.80;1.70;;;21.80;43.80;;;;;;5031344;28;20179;-72
2021/12/19 08:34:48;;;;;;;1.60;1.50;;;21.80;43.80;;;;;;5031485;28;20234;-72
2021/12/19 08:37:15;;;;;;;1.60;1.50;;;21.80;43.90;;;;;;5031552;28;20202;-72
2021/12/19 08:39:43;;;;;;;1.83;1.67;;;21.80;44.80;;;;;;5014881;28;20678;-72
2021/12/19 08:42:09;;;;;;;1.90;1.80;;;21.80;43.90;;;;;;5014902;28;20199;-72
2021/12/19 08:44:37;;;;;;;1.80;1.70;;;21.80;43.80;;;;;;5030932;28;20306;-72
2021/12/19 08:47:04;;;;;;;2.00;1.90;;;21.80;43.70;;;;;;5014672;28;20194;-72
2021/12/19 08:49:30;;;;;;;2.00;1.90;;;21.70;44.10;;;;;;5030898;28;20183;-72
2021/12/19 08:51:56;;;;;;;1.83;1.73;;;21.80;43.80;;;;;;5011270;28;20179;-72
2021/12/19 08:54:22;;;;;;;1.70;1.60;;;21.80;44.30;;;;;;5011366;28;20203;-72
2021/12/19 08:56:49;;;;;;;1.88;1.77;;;21.70;43.70;;;;;;5011379;28;20195;-72
2021/12/19 08:59:15;;;;;;;1.90;1.80;;;21.80;47.80;;;;;;4994777;28;20282;-72
2021/12/19 09:01:41;;;;;;;1.70;1.60;;;21.80;43.70;;;;;;5011296;28;20295;-72
2021/12/19 09:04:07;;;;;;;1.90;1.80;;;21.80;43.70;;;;;;5010980;28;20219;-72
2021/12/19 09:06:34;;;;;;;1.80;1.70;;;21.80;43.70;;;;;;5011657;28;20200;-72
2021/12/19 09:09:02;;;;;;;1.98;1.88;;;21.80;43.70;;;;;;5011230;28;20179;-72
2021/12/19 09:11:28;;;;;;;1.70;1.60;;;21.80;43.70;;;;;;4995041;28;20606;-72
2021/12/19 09:13:54;;;;;;;1.85;1.75;;;21.80;43.70;;;;;;5011351;28;20264;-72
2021/12/19 09:16:20;;;;;;;1.73;1.63;;;21.80;44.30;;;;;;5027843;28;20331;-73
2021/12/19 09:18:46;;;;;;;1.75;1.65;;;21.80;43.70;;;;;;5011010;28;20298;-72
2021/12/19 09:21:11;;;;;;;2.00;1.90;;;21.80;43.60;;;;;;5011014;28;20192;-73
2021/12/19 09:23:38;;;;;;;1.90;1.80;;;21.80;43.70;;;;;;5010853;28;20697;-72
2021/12/19 09:26:05;;;;;;;2.05;1.95;;;21.80;43.70;;;;;;5011136;28;20215;-72
2021/12/19 09:28:31;;;;;;;2.20;2.10;;;21.80;43.70;;;;;;4994552;28;20187;-72
2021/12/19 09:30:56;;;;;;;1.80;1.70;;;21.80;43.60;;;;;;5010908;28;20184;-72
2021/12/19 09:33:22;;;;;;;2.00;1.90;;;21.80;43.60;;;;;;5011135;28;20663;-72
2021/12/19 09:35:48;;;;;;;1.90;1.80;;;21.80;43.60;;;;;;5010939;28;20215;-72
2021/12/19 09:38:14;;;;;;;2.00;1.90;;;21.80;43.70;;;;;;5010748;28;20675;-72
2021/12/19 09:40:42;;;;;;;1.92;1.83;;;21.80;43.70;;;;;;4994933;28;20239;-72
2021/12/19 09:43:31;;;;;;;2.53;2.35;;;21.80;43.70;;;;;;5010965;28;20180;-72
2021/12/19 09:46:02;;;;;;;2.10;2.00;;;21.80;43.80;;;;;;5010725;28;20746;-72
2021/12/19 09:48:29;;;;;;;1.92;1.70;;;21.80;43.60;;;;;;5010782;28;20185;-73
2021/12/19 09:50:55;;;;;;;1.95;1.85;;;21.80;43.70;;;;;;5027475;28;20192;-72
2021/12/19 09:53:21;;;;;;;2.58;2.08;;;21.90;43.80;;;;;;4995349;28;20215;-72
2021/12/19 09:55:47;;;;;;;1.80;1.70;;;21.80;43.70;;;;;;5031034;28;20203;-72
2021/12/19 09:58:12;;;;;;;2.05;1.95;;;21.80;43.70;;;;;;5015289;28;20188;-72
2021/12/19 10:00:39;;;;;;;2.00;1.90;;;21.80;43.70;;;;;;5014474;28;20246;-72
2021/12/19 10:03:04;;;;;;;2.30;2.10;;;21.90;43.80;;;;;;5014390;28;20222;-73
2021/12/19 10:05:30;;;;;;;2.00;1.90;;;21.80;43.80;;;;;;5056125;22;20258;-73
2021/12/19 10:08:02;;;;;;;1.80;1.70;;;21.80;43.80;;;;;;5016307;28;20196;-73
2021/12/19 10:10:52;;;;;;;1.80;1.70;;;21.90;43.80;;;;;;5017513;28;20183;-73
2021/12/19 10:13:35;;;;;;;2.20;2.10;;;21.80;43.80;;;;;;5017270;28;20688;-72
2021/12/19 10:16:24;;;;;;;2.05;1.95;;;21.90;44.40;;;;;;5034922;28;20203;-74
2021/12/19 10:18:57;;;;;;;2.00;1.90;;;21.80;48.10;;;;;;5033548;28;20179;-74
2021/12/19 10:21:23;;;;;;;2.00;1.90;;;21.90;43.90;;;;;;5017392;28;20238;-73
2021/12/19 10:23:49;;;;;;;1.90;1.80;;;21.90;43.90;;;;;;5016950;28;20207;-73
2021/12/19 10:26:15;;;;;;;2.10;2.00;;;21.90;43.90;;;;;;5033432;28;20299;-73
2021/12/19 10:28:53;;;;;;;1.83;1.73;;;21.90;43.90;;;;;;5034460;28;20632;-73
2021/12/19 10:31:19;;;;;;;1.83;1.73;;;21.90;43.90;;;;;;5034608;28;20211;-74
2021/12/19 10:33:46;;;;;;;2.10;1.90;;;21.90;43.80;;;;;;5033490;28;20195;-73
2021/12/19 10:36:12;;;;;;;1.60;1.50;;;21.90;44.00;;;;;;5050209;28;20301;-72
2021/12/19 10:38:46;;;;;;;2.30;2.20;;;21.90;43.90;;;;;;5033078;28;20211;-74
2021/12/19 10:41:16;;;;;;;2.10;2.00;;;21.90;44.00;;;;;;5049792;28;20194;-73
2021/12/19 10:44:01;;;;;;;1.80;1.70;;;21.90;44.00;;;;;;5050007;28;20299;-74
2021/12/19 10:46:45;;;;;;;1.85;1.75;;;21.90;44.00;;;;;;5032817;28;20207;-73
2021/12/19 10:49:32;;;;;;;1.90;1.80;;;21.90;45.20;;;;;;5049627;28;20262;-74
2021/12/19 10:52:01;;;;;;;1.90;1.80;;;21.90;44.50;;;;;;5034596;28;20172;-73
2021/12/19 10:54:28;;;;;;;1.92;1.83;;;22.00;44.80;;;;;;5034132;28;20222;-73
2021/12/19 10:57:13;;;;;;;2.53;1.85;;;21.90;46.40;;;;;;5034086;28;20184;-74
2021/12/19 10:59:43;;;;;;;2.10;2.00;;;21.90;47.80;;;;;;5032990;28;20275;-73
2021/12/19 11:02:08;;;;;;;2.45;2.25;;;21.90;44.80;;;;;;5014351;28;20260;-72
2021/12/19 11:04:36;;;;;;;2.97;2.40;;;22.00;44.90;;;;;;5013688;28;20307;-74
2021/12/19 11:07:02;;;;;;;2.40;2.20;;;21.90;45.00;;;;;;5040246;28;20184;-75
2021/12/19 11:09:34;;;;;;;3.25;1.88;;;21.90;44.90;;;;;;5049247;28;20611;-74
2021/12/19 11:12:12;;;;;;;2.42;2.22;;;21.90;44.80;;;;;;5049416;28;20171;-74
2021/12/19 11:14:41;;;;;;;2.13;1.92;;;21.90;44.70;;;;;;5033879;28;20203;-74
2021/12/19 11:17:18;;;;;;;2.15;2.00;;;21.90;44.70;;;;;;5049254;28;20184;-74
2021/12/19 11:19:45;;;;;;;2.55;2.30;;;21.90;44.70;;;;;;5049073;28;20176;-74
2021/12/19 11:22:13;;;;;;;2.10;1.90;;;22.00;44.80;;;;;;5032661;28;20560;-74
2021/12/19 11:24:39;;;;;;;2.17;1.98;;;22.00;44.80;;;;;;5032201;28;20221;-73
2021/12/19 11:27:08;;;;;;;2.35;2.20;;;22.00;44.80;;;;;;5032307;28;20266;-74
2021/12/19 11:29:34;;;;;;;3.28;2.33;;;22.00;44.70;;;;;;5015538;28;20183;-74
2021/12/19 11:32:05;;;;;;;3.92;2.38;;;21.90;44.70;;;;;;5033492;28;20190;-74
2021/12/19 11:34:59;;;;;;;2.47;2.00;;;21.90;44.70;;;;;;5032133;28;20181;-74
2021/12/19 11:37:53;;;;;;;2.25;2.05;;;22.00;44.80;;;;;;5032102;28;20195;-74
2021/12/19 11:40:21;;;;;;;2.50;2.30;;;22.00;44.80;;;;;;5029680;28;20164;-74
2021/12/19 11:42:48;;;;;;;2.10;2.00;;;21.90;44.60;;;;;;5017994;28;20286;-74
2021/12/19 11:45:33;;;;;;;2.55;2.05;;;21.90;44.70;;;;;;5043308;28;20203;-73
2021/12/19 11:48:30;;;;;;;5.80;2.03;;;21.90;44.70;;;;;;5028407;28;20188;-74
2021/12/19 11:51:20;;;;;;;2.25;2.00;;;22.00;44.80;;;;;;5012183;28;20168;-74
2021/12/19 11:53:46;;;;;;;3.17;2.42;;;22.00;44.70;;;;;;5029363;28;20202;-73
2021/12/19 11:56:18;;;;;;;2.35;2.00;;;22.00;44.70;;;;;;5031927;28;20203;-73
2021/12/19 11:58:50;;;;;;;2.17;1.98;;;22.00;44.70;;;;;;5031546;28;20187;-74
2021/12/19 12:01:27;;;;;;;2.75;2.30;;;22.00;44.80;;;;;;5032918;28;20258;-74
2021/12/19 12:04:03;;;;;;;2.30;2.10;;;22.00;44.70;;;;;;5048168;28;20203;-75
2021/12/19 12:06:43;;;;;;;2.05;1.95;;;21.90;44.70;;;;;;5048027;28;20219;-73
2021/12/19 12:09:22;;;;;;;2.20;2.00;;;22.00;44.70;;;;;;5048198;28;20186;-74
2021/12/19 12:12:02;;;;;;;2.08;1.98;;;22.00;44.70;;;;;;5031642;28;20175;-74
2021/12/19 12:14:35;;;;;;;2.20;2.00;;;22.00;44.70;;;;;;5032666;28;20200;-74
2021/12/19 12:17:12;;;;;;;1.90;1.80;;;22.00;44.70;;;;;;5014853;28;20183;-74
2021/12/19 12:19:47;;;;;;;2.33;2.13;;;22.00;44.80;;;;;;5031562;28;20222;-72
2021/12/19 12:22:28;;;;;;;2.53;2.15;;;22.00;44.70;;;;;;5031823;28;20178;-74
2021/12/19 12:25:18;;;;;;;2.38;1.90;;;22.00;44.70;;;;;;5014830;28;20650;-74
2021/12/19 12:27:48;;;;;;;3.53;2.28;;;22.00;44.70;;;;;;5031106;28;20187;-74
2021/12/19 12:30:28;;;;;;;3.78;1.98;;;22.00;44.70;;;;;;5015151;28;20197;-74
2021/12/19 12:32:58;;;;;;;3.00;2.25;;;22.00;44.80;;;;;;5031491;28;20190;-74
2021/12/19 12:35:25;;;;;;;2.50;2.30;;;22.00;44.80;;;;;;5015065;28;20209;-74
2021/12/19 12:37:54;;;;;;;2.38;2.17;;;22.00;44.80;;;;;;5031063;28;20198;-73
2021/12/19 12:40:31;;;;;;;2.50;2.28;;;22.00;44.70;;;;;;5014736;28;20349;-74
2021/12/19 12:43:30;;;;;;;2.72;2.03;;;22.00;44.70;;;;;;5014795;28;20183;-71
2021/12/19 12:46:14;;;;;;;3.55;2.17;;;22.00;44.70;;;;;;5014826;28;20247;-74
2021/12/19 12:48:41;;;;;;;2.50;2.30;;;22.00;44.70;;;;;;5031003;28;20383;-73
2021/12/19 12:51:18;;;;;;;3.30;2.05;;;22.00;44.80;;;;;;5031072;28;20219;-74
2021/12/19 12:53:50;;;;;;;3.17;2.20;;;22.00;44.80;;;;;;5031237;28;20171;-74
2021/12/19 12:56:30;;;;;;;2.50;1.95;;;22.00;44.80;;;;;;5014626;28;20320;-73
2021/12/19 12:58:56;;;;;;;2.50;2.30;;;22.00;44.80;;;;;;5030908;28;20254;-74
2021/12/19 13:01:39;;;;;;;2.28;2.10;;;22.00;44.80;;;;;;5014791;28;20233;-74
2021/12/19 13:04:25;;;;;;;3.00;2.30;;;22.00;44.80;;;;;;5014404;28;20214;-73
2021/12/19 13:07:02;;;;;;;2.25;2.05;;;22.00;44.80;;;;;;5014508;28;20183;-73
2021/12/19 13:09:41;;;;;;;2.60;2.40;;;22.00;44.80;;;;;;5014687;28;20183;-73
2021/12/19 13:12:16;;;;;;;2.47;2.00;;;22.00;44.80;;;;;;5014611;28;20597;-73
2021/12/19 13:14:52;;;;;;;1.98;1.88;;;22.00;44.80;;;;;;5016122;28;20265;-72
2021/12/19 13:17:24;;;;;;;3.47;2.28;;;22.00;44.80;;;;;;5034001;28;20593;-73
2021/12/19 13:20:28;;;;;;;2.63;2.42;;;22.00;45.50;;;;;;5053099;28;20186;-73
2021/12/19 13:23:01;;;;;;;3.08;2.17;;;22.00;44.80;;;;;;5027291;28;20218;-73
2021/12/19 13:25:40;;;;;;;2.80;2.03;;;22.00;44.80;;;;;;5058908;28;20705;-73
2021/12/19 13:28:12;;;;;;;2.05;1.90;;;22.00;44.80;;;;;;5039573;28;20199;-72
2021/12/19 13:30:44;;;;;;;1.80;1.70;;;22.00;44.80;;;;;;5058551;28;20178;-73
2021/12/19 13:33:13;;;;;;;2.47;2.28;;;22.00;44.90;;;;;;5034324;28;20191;-73
2021/12/19 13:35:50;;;;;;;2.97;2.50;;;22.00;44.90;;;;;;5042716;28;20213;-73
2021/12/19 13:38:19;;;;;;;2.28;2.10;;;22.00;44.90;;;;;;5035391;28;20182;-72
2021/12/19 13:41:02;;;;;;;2.60;2.40;;;22.00;44.90;;;;;;4998861;28;20192;-72
2021/12/19 13:43:33;;;;;;;2.50;2.30;;;22.00;44.90;;;;;;5037879;28;20210;-72
2021/12/19 13:46:08;;;;;;;2.33;2.13;;;22.00;44.90;;;;;;5029235;28;20210;-73
2021/12/19 13:48:49;;;;;;;2.63;2.42;;;22.00;44.90;;;;;;5054007;28;20190;-73
2021/12/19 13:51:23;;;;;;;2.83;2.17;;;22.00;44.90;;;;;;5071001;28;20179;-72
2021/12/19 13:53:58;;;;;;;2.33;2.13;;;22.00;45.00;;;;;;5054231;28;20186;-73
2021/12/19 13:56:36;;;;;;;2.90;2.22;;;22.00;44.90;;;;;;5070854;28;20206;-72
2021/12/19 13:59:17;;;;;;;1.90;1.80;;;22.00;44.90;;;;;;5070560;28;20185;-72
2021/12/19 14:01:43;;;;;;;2.10;2.00;;;22.00;45.00;;;;;;5054841;28;20630;-72
2021/12/19 14:04:24;;;;;;;2.28;1.90;;;22.00;45.00;;;;;;5053793;28;20202;-72
2021/12/19 14:06:58;;;;;;;2.08;1.88;;;22.00;45.00;;;;;;5046289;28;20665;-72